createdAt,value
2018-09-08T00:01:26.005Z,3.15
2018-09-08T00:03:59.852Z,3.50
2018-09-08T00:06:34.234Z,4.05
2018-09-08T00:09:07.748Z,3.98
2018-09-08T00:11:40.961Z,3.47
2018-09-08T00:14:14.031Z,3.92
2018-09-08T00:16:49.769Z,3.70
2018-09-08T00:19:26.230Z,3.87
2018-09-08T00:22:03.541Z,3.02
2018-09-08T00:24:40.024Z,3.40
2018-09-08T00:27:12.116Z,3.42
2018-09-08T00:29:47.620Z,3.30
2018-09-08T00:32:20.535Z,4.70
2018-09-08T00:34:51.109Z,4.17
2018-09-08T00:37:23.374Z,4.40
2018-09-08T00:39:54.462Z,3.75
2018-09-08T00:42:30.335Z,3.67
2018-09-08T00:45:01.483Z,3.52
2018-09-08T00:47:32.709Z,3.60
2018-09-08T00:50:04.318Z,3.75
2018-09-08T00:52:36.123Z,3.72
2018-09-08T00:55:08.880Z,4.30
2018-09-08T00:57:41.068Z,3.72
2018-09-08T01:00:12.590Z,4.50
2018-09-08T01:02:48.668Z,4.05
2018-09-08T01:05:20.623Z,4.17
2018-09-08T01:07:52.773Z,4.35
2018-09-08T01:10:24.550Z,3.77
2018-09-08T01:12:56.064Z,3.90
2018-09-08T01:15:27.134Z,4.55
2018-09-08T01:17:59.755Z,4.08
2018-09-08T01:20:31.266Z,4.35
2018-09-08T01:23:02.405Z,4.60
2018-09-08T01:25:32.838Z,4.50
2018-09-08T01:28:02.960Z,4.80
2018-09-08T01:30:33.463Z,4.12
2018-09-08T01:33:04.527Z,4.17
2018-09-08T01:35:38.961Z,4.12
2018-09-08T01:38:10.086Z,4.40
2018-09-08T01:40:40.399Z,3.95
2018-09-08T01:43:11.626Z,4.75
2018-09-08T01:45:46.101Z,4.42
2018-09-08T01:48:17.403Z,4.22
2018-09-08T01:50:58.225Z,4.12
2018-09-08T01:53:31.472Z,4.35
2018-09-08T01:56:03.177Z,4.10
2018-09-08T01:58:35.647Z,4.25
2018-09-08T02:01:09.080Z,3.77
2018-09-08T02:03:40.816Z,4.53
2018-09-08T02:06:11.365Z,4.70
2018-09-08T02:08:42.974Z,4.10
2018-09-08T02:11:14.345Z,3.65
2018-09-08T02:13:46.105Z,3.90
2018-09-08T02:16:18.036Z,3.62
2018-09-08T02:18:48.661Z,3.90
2018-09-08T02:21:22.498Z,3.47
2018-09-08T02:23:54.873Z,3.95
2018-09-08T02:26:28.036Z,3.67
2018-09-08T02:29:00.214Z,3.62
2018-09-08T02:31:32.290Z,3.10
2018-09-08T02:34:03.697Z,3.75
2018-09-08T02:36:37.440Z,3.52
2018-09-08T02:39:11.656Z,3.50
2018-09-08T02:41:43.774Z,3.40
2018-09-08T02:44:14.370Z,3.42
2018-09-08T02:46:51.033Z,3.05
2018-09-08T02:49:22.111Z,3.90
2018-09-08T02:51:51.067Z,2.35
2018-09-08T02:54:20.374Z,4.35
2018-09-08T02:56:49.304Z,1.85
2018-09-08T02:59:19.642Z,3.70
2018-09-08T03:01:50.418Z,3.55
2018-09-08T03:04:19.715Z,3.10
2018-09-08T03:06:48.130Z,3.62
2018-09-08T03:22:34.608Z,3.15
2018-09-08T03:25:03.092Z,3.30
2018-09-08T03:27:33.004Z,4.70
2018-09-08T03:30:01.281Z,4.30
2018-09-08T03:32:31.763Z,4.05
2018-09-08T03:35:00.399Z,4.10
2018-09-08T03:37:28.864Z,3.42
2018-09-08T03:39:57.253Z,3.62
2018-09-08T03:42:26.468Z,4.33
2018-09-08T03:44:55.677Z,3.98
2018-09-08T03:47:23.746Z,2.65
2018-09-08T03:49:53.950Z,4.78
2018-09-08T03:52:23.134Z,4.50
2018-09-08T03:54:52.126Z,4.47
2018-09-08T03:57:20.307Z,3.35
2018-09-08T03:59:48.881Z,3.67
2018-09-08T04:02:17.051Z,4.80
2018-09-08T04:04:49.070Z,3.92
2018-09-08T04:07:20.058Z,4.35
2018-09-08T04:09:53.272Z,3.50
2018-09-08T04:12:23.486Z,4.50
2018-09-08T04:14:55.160Z,3.83
2018-09-08T04:17:25.865Z,2.90
2018-09-08T04:19:57.659Z,5.10
2018-09-08T04:22:31.946Z,3.45
2018-09-08T04:25:03.195Z,4.90
2018-09-08T04:27:38.333Z,3.45
2018-09-08T04:30:08.850Z,5.45
2018-09-08T04:32:41.180Z,5.42
2018-09-08T04:35:12.569Z,4.20
2018-09-08T04:37:42.882Z,2.87
2018-09-08T04:40:13.328Z,5.92
2018-09-08T04:42:43.465Z,3.52
2018-09-08T04:45:13.680Z,5.92
2018-09-08T04:47:43.893Z,4.83
2018-09-08T04:50:14.197Z,5.65
2018-09-08T04:52:44.525Z,3.62
2018-09-08T04:55:17.930Z,2.47
2018-09-08T04:57:48.668Z,6.20
2018-09-08T05:00:19.184Z,6.08
2018-09-08T05:02:49.833Z,6.08
2018-09-08T05:05:20.477Z,5.53
2018-09-08T05:07:51.006Z,3.42
2018-09-08T05:10:22.125Z,4.35
2018-09-08T05:12:53.157Z,6.28
2018-09-08T05:15:24.454Z,4.90
2018-09-08T05:17:55.495Z,6.30
2018-09-08T05:20:26.160Z,5.25
2018-09-08T05:22:57.251Z,5.90
2018-09-08T05:25:28.162Z,5.35
2018-09-08T05:27:59.542Z,5.00
2018-09-08T05:30:31.029Z,5.30
2018-09-08T05:33:01.495Z,6.28
2018-09-08T05:35:32.544Z,5.08
2018-09-08T05:41:01.767Z,5.33
2018-09-08T05:43:33.525Z,3.25
2018-09-08T05:46:05.283Z,3.25
2018-09-08T05:48:45.264Z,3.90
2018-09-08T05:51:16.252Z,4.85
2018-09-08T05:53:47.177Z,4.55
2018-09-08T05:56:17.952Z,4.95
2018-09-08T05:58:49.810Z,5.55
2018-09-08T06:04:22.100Z,2.83
2018-09-08T06:06:58.471Z,5.10
2018-09-08T06:09:39.171Z,2.95
2018-09-08T06:12:10.858Z,3.70
2018-09-08T06:14:59.320Z,5.10
2018-09-08T06:17:30.663Z,3.12
2018-09-08T06:20:22.298Z,4.40
2018-09-08T06:23:09.665Z,5.45
2018-09-08T06:26:00.974Z,4.10
2018-09-08T06:28:37.500Z,3.52
2018-09-08T06:31:14.925Z,3.65
2018-09-08T06:33:48.249Z,5.67
2018-09-08T06:36:19.296Z,3.98
2018-09-08T06:38:51.086Z,4.55
2018-09-08T06:41:26.965Z,4.28
2018-09-08T06:43:59.825Z,3.35
2018-09-08T06:46:30.335Z,5.78
2018-09-08T06:49:05.468Z,5.08
2018-09-08T06:51:37.330Z,5.12
2018-09-08T06:54:08.912Z,4.97
2018-09-08T06:56:39.670Z,5.50
2018-09-08T07:16:50.992Z,4.65
2018-09-08T07:19:23.600Z,4.03
2018-09-08T07:21:56.406Z,3.95
2018-09-08T07:24:26.995Z,3.42
2018-09-08T07:26:58.055Z,4.65
2018-09-08T07:29:32.460Z,5.12
2018-09-08T07:32:06.583Z,5.45
2018-09-08T07:34:37.100Z,4.50
2018-09-08T07:37:10.779Z,4.40
2018-09-08T07:39:41.127Z,3.75
2018-09-08T07:42:17.415Z,3.58
2018-09-08T07:44:49.038Z,3.17
2018-09-08T07:47:21.009Z,5.83
2018-09-08T07:49:51.641Z,4.10
2018-09-08T07:52:24.945Z,3.42
2018-09-08T07:54:55.140Z,4.20
2018-09-08T08:42:33.156Z,4.20
2018-09-08T08:45:05.717Z,3.55
2018-09-08T08:47:36.033Z,4.08
2018-09-08T08:50:22.667Z,3.85
2018-09-08T08:53:09.878Z,5.30
2018-09-08T08:55:40.194Z,4.55
2018-09-08T08:58:10.610Z,4.80
2018-09-08T09:00:40.914Z,4.28
2018-09-08T09:03:17.929Z,4.42
2018-09-08T09:05:51.471Z,3.80
2018-09-08T09:08:22.431Z,5.57
2018-09-08T09:10:54.602Z,3.92
2018-09-08T09:16:27.454Z,5.97
2018-09-08T09:19:36.593Z,4.83
2018-09-08T09:24:34.097Z,5.03
2018-09-08T09:36:20.165Z,4.62
2018-09-08T09:38:53.574Z,5.90
2018-09-08T09:41:35.574Z,4.10
2018-09-08T09:44:06.293Z,5.37
2018-09-08T09:46:50.763Z,3.87
2018-09-08T09:49:27.897Z,3.22
2018-09-08T09:51:58.925Z,4.30
2018-09-08T09:54:29.397Z,3.45
2018-09-08T09:57:00.042Z,4.17
2018-09-08T09:59:30.554Z,5.10
2018-09-08T10:02:07.968Z,5.17
2018-09-08T10:04:39.515Z,4.30
2018-09-08T10:07:11.887Z,4.53
2018-09-08T10:09:42.209Z,5.25
2018-09-08T10:12:16.404Z,3.42
2018-09-08T10:14:47.546Z,4.20
2018-09-08T10:17:17.996Z,5.03
2018-09-08T10:19:48.621Z,3.77
2018-09-08T10:22:18.740Z,3.95
2018-09-08T10:24:49.796Z,4.42
2018-09-08T10:27:20.415Z,3.87
2018-09-08T10:29:51.162Z,3.65
2018-09-08T10:32:28.854Z,5.53
2018-09-08T10:35:00.618Z,3.70
2018-09-08T10:37:35.656Z,3.20
2018-09-08T10:40:07.499Z,3.98
2018-09-08T10:42:40.087Z,3.65
2018-09-08T10:45:10.723Z,3.12
2018-09-08T10:47:40.920Z,3.22
2018-09-08T10:50:16.786Z,3.37
2018-09-08T10:52:49.502Z,3.17
2018-09-08T10:55:20.788Z,3.50
2018-09-08T10:57:53.823Z,3.05
2018-09-08T11:00:24.965Z,3.92
2018-09-08T11:02:55.580Z,2.50
2018-09-08T11:05:26.923Z,2.58
2018-09-08T11:07:57.569Z,2.83
2018-09-08T11:10:28.520Z,2.70
2018-09-08T11:12:58.756Z,2.30
2018-09-08T11:15:29.706Z,2.20
2018-09-08T11:18:06.951Z,2.60
2018-09-08T11:20:37.370Z,2.40
2018-09-08T11:23:08.550Z,2.05
2018-09-08T11:25:40.111Z,2.05
2018-09-08T11:28:14.647Z,1.85
2018-09-08T11:30:45.734Z,2.77
2018-09-08T11:33:17.957Z,2.65
2018-09-08T11:35:48.416Z,3.00
2018-09-08T11:38:24.891Z,1.37
2018-09-08T11:43:30.242Z,1.95
2018-09-08T11:46:00.720Z,2.17
2018-09-08T11:48:32.208Z,1.90
2018-09-08T11:51:02.815Z,1.72
2018-09-08T11:53:33.517Z,1.25
2018-09-08T11:56:09.088Z,1.90
2018-09-08T11:58:39.981Z,1.12
2018-09-08T12:01:14.079Z,1.22
2018-09-08T12:03:58.469Z,1.80
2018-09-08T12:06:35.036Z,1.30
2018-09-08T12:09:39.329Z,2.05
2018-09-08T12:12:18.182Z,2.33
2018-09-08T12:14:55.915Z,1.70
2018-09-08T12:17:29.714Z,1.87
2018-09-08T12:27:59.387Z,1.35
2018-09-08T12:30:39.770Z,1.42
2018-09-08T12:48:50.963Z,1.92
2018-09-08T12:51:23.925Z,1.77
2018-09-08T12:53:58.651Z,2.15
2018-09-08T12:56:32.417Z,1.92
2018-09-08T12:59:08.692Z,1.20
2018-09-08T13:01:51.118Z,1.67
2018-09-08T13:04:25.212Z,1.50
2018-09-08T13:07:00.347Z,2.10
2018-09-08T13:09:34.403Z,1.60
2018-09-08T13:12:15.337Z,1.10
2018-09-08T13:14:55.540Z,1.72
2018-09-08T13:20:39.204Z,2.12
2018-09-08T13:23:17.847Z,2.30
2018-09-08T13:25:50.302Z,1.87
2018-09-08T13:41:53.192Z,2.35
2018-09-08T13:44:27.980Z,1.75
2018-09-08T13:47:00.677Z,2.42
2018-09-08T13:49:34.023Z,1.90
2018-09-08T13:52:11.900Z,2.60
2018-09-08T13:54:44.847Z,2.52
2018-09-08T13:57:21.425Z,2.08
2018-09-08T14:00:03.983Z,2.40
2018-09-08T14:02:38.476Z,1.82
2018-09-08T14:06:44.067Z,2.85
2018-09-08T14:09:19.043Z,2.30
2018-09-08T14:11:53.970Z,1.20
2018-09-08T14:14:27.938Z,1.50
2018-09-08T14:17:01.880Z,2.10
2018-09-08T14:19:34.598Z,1.50
2018-09-08T14:22:08.612Z,1.77
2018-09-08T14:24:38.932Z,2.00
2018-09-08T14:27:09.420Z,2.42
2018-09-08T14:29:40.698Z,1.98
2018-09-08T14:32:13.258Z,1.70
2018-09-08T14:34:45.656Z,1.25
2018-09-08T14:37:17.573Z,1.85
2018-09-08T14:39:50.274Z,1.90
2018-09-08T14:42:21.448Z,1.75
2018-09-08T14:44:53.266Z,1.75
2018-09-08T14:47:25.759Z,1.17
2018-09-08T14:49:58.560Z,1.32
2018-09-08T14:52:31.058Z,1.87
2018-09-08T14:55:02.785Z,1.70
2018-09-08T14:57:34.548Z,1.80
2018-09-08T15:00:06.685Z,1.80
2018-09-08T15:02:42.013Z,1.35
2018-09-08T15:05:12.513Z,1.80
2018-09-08T15:08:00.433Z,1.17
2018-09-08T15:23:50.869Z,1.52
2018-09-08T15:26:22.196Z,1.95
2018-09-08T15:28:53.701Z,1.25
2018-09-08T15:31:24.373Z,1.62
2018-09-08T15:33:55.481Z,2.22
2018-09-08T15:36:26.427Z,2.20
2018-09-08T15:39:00.417Z,2.40
2018-09-08T15:41:31.834Z,1.62
2018-09-08T15:44:01.982Z,2.37
2018-09-08T15:46:33.075Z,2.17
2018-09-08T15:49:04.625Z,1.80
2018-09-08T15:51:35.152Z,2.20
2018-09-08T15:54:07.153Z,2.20
2018-09-08T15:56:38.241Z,2.52
2018-09-08T15:59:08.556Z,1.90
2018-09-08T16:01:40.087Z,2.08
2018-09-08T16:04:13.429Z,2.12
2018-09-08T16:06:44.162Z,2.08
2018-09-08T16:11:51.363Z,2.12
2018-09-08T16:14:24.519Z,2.22
2018-09-08T16:16:56.521Z,2.58
2018-09-08T16:19:28.139Z,2.67
2018-09-08T16:21:59.144Z,2.30
2018-09-08T16:24:29.492Z,2.80
2018-09-08T16:27:01.201Z,2.45
2018-09-08T16:29:33.104Z,2.40
2018-09-08T16:32:03.487Z,2.45
2018-09-08T16:34:35.068Z,2.17
2018-09-08T16:37:07.113Z,2.70
2018-09-08T16:39:38.885Z,2.90
2018-09-08T16:42:09.386Z,2.15
2018-09-08T16:44:43.308Z,2.95
2018-09-08T16:47:13.968Z,3.25
2018-09-08T16:49:45.289Z,2.80
2018-09-08T16:52:17.051Z,2.05
2018-09-08T16:54:49.808Z,2.77
2018-09-08T16:57:21.702Z,3.42
2018-09-08T16:59:55.825Z,2.45
2018-09-08T17:02:27.469Z,2.67
2018-09-08T17:04:58.371Z,3.08
2018-09-08T17:07:29.957Z,2.70
2018-09-08T17:10:00.828Z,2.25
2018-09-08T17:12:34.907Z,3.37
2018-09-08T17:15:08.016Z,3.15
2018-09-08T17:17:39.002Z,3.00
2018-09-08T17:20:10.353Z,2.62
2018-09-08T17:22:41.371Z,2.65
2018-09-08T17:25:12.387Z,3.47
2018-09-08T17:27:43.403Z,3.35
2018-09-08T17:30:14.334Z,3.70
2018-09-08T17:32:45.787Z,3.30
2018-09-08T17:35:22.569Z,3.90
2018-09-08T17:37:54.033Z,3.98
2018-09-08T17:40:27.824Z,3.27
2018-09-08T17:43:00.327Z,3.67
2018-09-08T17:45:30.894Z,3.65
2018-09-08T17:48:03.997Z,3.87
2018-09-08T17:50:34.960Z,3.75
2018-09-08T17:53:05.585Z,4.12
2018-09-08T17:58:29.195Z,3.75
2018-09-08T18:01:01.235Z,3.65
2018-09-08T18:06:10.055Z,3.20
2018-09-08T18:08:42.148Z,4.60
2018-09-08T18:11:15.856Z,3.80
2018-09-08T18:13:54.205Z,3.83
2018-09-08T18:16:25.499Z,3.47
2018-09-08T18:18:56.626Z,4.20
2018-09-08T18:21:27.575Z,3.92
2018-09-08T18:24:00.054Z,4.30
2018-09-08T18:26:31.271Z,4.60
2018-09-08T18:29:02.763Z,4.25
2018-09-08T18:31:35.312Z,3.45
2018-09-08T18:34:09.564Z,4.75
2018-09-08T18:36:44.823Z,4.95
2018-09-08T18:39:16.635Z,3.80
2018-09-08T18:41:54.965Z,4.72
2018-09-08T18:44:32.069Z,5.87
2018-09-08T18:47:10.171Z,4.90
2018-09-08T18:49:42.736Z,5.20
2018-09-08T18:55:07.862Z,4.75
2018-09-08T18:57:43.422Z,5.05
2018-09-08T19:00:16.194Z,5.00
2018-09-08T19:02:53.675Z,5.20
2018-09-08T19:05:25.219Z,4.72
2018-09-08T19:07:58.944Z,4.67
2018-09-08T19:10:37.958Z,5.15
2018-09-08T19:13:12.841Z,4.97
2018-09-08T19:15:44.083Z,4.87
2018-09-08T19:18:15.928Z,5.35
2018-09-08T19:20:48.652Z,5.50
2018-09-08T19:23:19.834Z,5.55
2018-09-08T19:25:51.843Z,5.70
2018-09-08T19:28:22.439Z,5.67
2018-09-08T19:31:01.699Z,5.33
2018-09-08T19:33:37.369Z,5.15
2018-09-08T19:36:09.129Z,5.50
2018-09-08T19:38:42.142Z,5.17
2018-09-08T19:41:15.044Z,5.42
2018-09-08T19:43:45.670Z,4.78
2018-09-08T19:46:21.480Z,5.95
2018-09-08T19:48:52.211Z,5.80
2018-09-08T19:51:25.395Z,5.50
2018-09-08T19:53:58.642Z,5.92
2018-09-08T19:56:36.395Z,5.28
2018-09-08T19:59:15.232Z,5.25
2018-09-08T20:01:47.253Z,5.40
2018-09-08T20:04:17.832Z,5.25
2018-09-08T20:06:51.438Z,5.60
2018-09-08T20:09:24.861Z,5.28
2018-09-08T20:11:55.550Z,5.00
2018-09-08T20:14:26.409Z,5.08
2018-09-08T20:16:58.594Z,5.70
2018-09-08T20:22:16.308Z,5.92
2018-09-08T20:24:47.980Z,6.40
2018-09-08T20:27:19.739Z,6.47
2018-09-08T20:29:52.193Z,5.40
2018-09-08T20:32:28.248Z,6.28
2018-09-08T20:35:00.293Z,5.65
2018-09-08T20:37:33.009Z,5.45
2018-09-08T20:40:04.551Z,5.12
2018-09-08T20:42:36.704Z,5.60
2018-09-08T20:45:10.311Z,5.40
2018-09-08T20:47:42.911Z,5.10
2018-09-08T20:50:15.959Z,5.42
2018-09-08T20:52:47.515Z,4.60
2018-09-08T20:55:19.607Z,4.70
2018-09-08T20:57:52.435Z,4.58
2018-09-08T21:00:25.233Z,5.80
2018-09-08T21:02:57.488Z,5.50
2018-09-08T21:05:28.896Z,5.05
2018-09-08T21:07:59.633Z,4.60
2018-09-08T21:10:29.910Z,4.70
2018-09-08T21:13:00.474Z,4.50
2018-09-08T21:15:30.994Z,4.67
2018-09-08T21:18:01.734Z,4.80
2018-09-08T21:20:33.287Z,5.10
2018-09-08T21:23:03.917Z,4.90
2018-09-08T21:25:34.554Z,4.83
2018-09-08T21:28:06.999Z,4.92
2018-09-08T21:30:38.988Z,4.75
2018-09-08T21:33:10.325Z,5.58
2018-09-08T21:35:40.840Z,5.12
2018-09-08T21:38:11.680Z,4.95
2018-09-08T21:40:43.595Z,3.72
2018-09-08T21:43:15.144Z,5.55
2018-09-08T21:45:47.180Z,5.30
2018-09-08T21:48:19.351Z,4.80
2018-09-08T21:50:55.890Z,5.00
2018-09-08T21:53:36.042Z,4.80
2018-09-08T21:56:13.129Z,6.00
2018-09-08T21:58:45.347Z,5.12
2018-09-08T22:01:21.873Z,4.78
2018-09-08T22:03:59.581Z,4.78
2018-09-08T22:06:34.112Z,4.83
2018-09-08T22:09:08.758Z,4.30
2018-09-08T22:11:39.639Z,4.10
2018-09-08T22:14:11.713Z,4.40
2018-09-08T22:16:45.701Z,4.00
2018-09-08T22:19:19.223Z,4.58
2018-09-08T22:24:27.143Z,4.42
2018-09-08T22:27:01.133Z,4.60
2018-09-08T22:29:33.322Z,5.03
2018-09-08T22:32:07.566Z,4.83
2018-09-08T22:34:40.144Z,4.50
2018-09-08T22:37:14.091Z,4.80
2018-09-08T22:39:47.135Z,4.60
2018-09-08T22:42:18.797Z,4.70
2018-09-08T22:44:50.756Z,5.00
2018-09-08T23:00:26.437Z,5.30
2018-09-08T23:02:57.511Z,5.45
2018-09-08T23:05:29.498Z,4.80
2018-09-08T23:08:01.153Z,4.35
2018-09-08T23:10:33.481Z,5.50
2018-09-08T23:13:04.285Z,5.22
2018-09-08T23:15:34.407Z,4.67
2018-09-08T23:18:07.463Z,5.67
2018-09-08T23:20:43.050Z,4.30
2018-09-08T23:26:00.074Z,3.25
2018-09-08T23:28:30.614Z,5.50
2018-09-08T23:31:04.403Z,5.67
2018-09-08T23:33:38.448Z,3.70
2018-09-08T23:36:13.983Z,6.50
2018-09-08T23:38:45.772Z,5.87
2018-09-08T23:41:34.813Z,5.50
2018-09-08T23:44:05.521Z,5.80
2018-09-08T23:46:37.579Z,5.80
2018-09-08T23:49:09.355Z,5.83
2018-09-08T23:51:42.329Z,6.53
2018-09-08T23:54:13.093Z,6.80
2018-09-08T23:56:45.743Z,6.08
2018-09-08T23:59:16.368Z,5.05
